Klik op de webcam foto voor een grotere versieKlik op de webcam foto voor een grotere versie
Of klik hier voor
de webcam video


Bezoek onze andere website:Website of another weatherstation



Het weer levert geen direct gevaar op.    Er zijn geen waarschuwingen afgegeven.

Nabijgelegen vliegvelden - METAR rapporten

   
EBBR - Vaartkom-Leuven
Gewijzigd: 18-08-2018 23:20
Grotendeels bewolkt    Wind: ZZW 7 km/h
Grotendeels bewolkt
Wind: Wind: ZZW 7 km/h
Temperatuur: 18°C
Dauwpunt: 14°C
Vochtigheid: 78%
Barometer: 1023 hPa
Bewolking: Grotendeels bewolkt
Zicht: meer dan 10 km
Bewolking: Grotendeels bewolkt 1158.2 m
EBBR 182120Z 21004KT 9999 BKN038 18/14 Q1023 NOSIG
EBAW - Antwerp
Gewijzigd: 18-08-2018 23:20
Bewolking    Wind: WZW 7 km/h
Bewolking
Wind: Wind: WZW 7 km/h
Temperatuur: 20°C
Dauwpunt: 13°C
Vochtigheid: 64%
Barometer: 1022 hPa
Bewolking: Bewolking
Zicht: meer dan 10 km
Bewolking: Bewolking 1188.7 m
EBAW 182120Z AUTO 24004KT 220V280 9999 // OVC039/// 20/13 Q1022
EBLG - Li├Ęge
Gewijzigd: 18-08-2018 23:20
Helder    Wind: ZW 7 km/h
Helder
Wind: Wind: ZW 7 km/h
Temperatuur: 16°C
Dauwpunt: 13°C
Vochtigheid: 83%
Barometer: 1023 hPa
Zicht: meer dan 10 km
Bewolking: Helder
EBLG 182120Z 23004KT CAVOK 16/13 Q1023 NOSIG
EBCV - Mons/Bergen
Gewijzigd: 18-08-2018 23:25
Bewolking    Wind: Westen 11 km/h
Bewolking
Wind: Wind: Westen 11 km/h
Temperatuur: 18°C
Dauwpunt: 14°C
Vochtigheid: 78%
Barometer: 1023 hPa
Bewolking: Bewolking
Zicht: meer dan 10 km
Bewolking: Bewolking 1158.2 m
EBCV 182125Z AUTO 26006KT 9999 OVC038/// 18/14 Q1023 BLU
EHBK - Maastricht
Gewijzigd: 18-08-2018 23:25
Gedeeltelijk bewolkt    Wind: ZW 7 km/h
Gedeeltelijk bewolkt
Wind: Wind: ZW 7 km/h
Temperatuur: 17°C
Dauwpunt: 13°C
Vochtigheid: 77%
Barometer: 1023 hPa
Bewolking: Gedeeltelijk bewolkt
Zicht: meer dan 10 km
Bewolking: Gedeeltelijk bewolkt
EHBK 182125Z AUTO 23004KT 210V270 9999 NSC 17/13 Q1023
ELLX - Luxemburg
Gewijzigd: 18-08-2018 23:20
Helder    Wind: WNW 11 km/h
Helder
Wind: Wind: WNW 11 km/h
Temperatuur: 17°C
Dauwpunt: 10°C
Vochtigheid: 64%
Barometer: 1024 hPa
Zicht: meer dan 10 km
Bewolking: Helder
ELLX 182120Z 30006KT CAVOK 17/10 Q1024 NOSIG
EBOS - Oostende
Gewijzigd: 18-08-2018 23:20
Grotendeels bewolkt    Wind: ZZW 19 km/h
Grotendeels bewolkt
Wind: Wind: ZZW 19 km/h
Temperatuur: 17°C
Dauwpunt: 13°C
Vochtigheid: 77%
Barometer: 1022 hPa
Bewolking: Grotendeels bewolkt
Zicht: meer dan 10 km
Bewolking: Licht bewolkt 670.6 m,
Grotendeels bewolkt 1127.8 m
EBOS 182120Z 21010KT 9999 FEW022 BKN037 17/13 Q1022 NOSIG
  

Script ontwikkeld door  Saratoga-weather.org Aangepast voor de template door  Weerstation Leuven

U vindt ons ook hier:

UK Metoffice

WeatherCloud

European Weather Network

Weather Underground

Bernelux Weather Network

AWEKAS

WeatherlinkIP

Citizen Weather Observer Program (CWOP)

HAMweather, WeatherForYou, PWS Weather

Apparatuur in gebruik:

Weer-station
Davis VUE

Weer-programma
Meteobridge

Webleverancier
Robohost

Davis VUE

Meteobridge

Robohost